Jackson, MS

7:06 PM CST on December 19, 2014 (GMT -0600)
Jackson-Evers International | Change Station
CLOSE
Current Station
Airport
Location: Jackson,
Elevation: 328 ft
Nearby Weather Stations

Elev 328 ft 32.32 °N, 90.08 °W | Updated 12 minutes ago

Rain
Rain
46 °F
Feels Like 41 °F
N
9
Wind Variable Wind from East

Today
High -- | Low -- °F
--% Chance of Precip.
Yesterday
High -- | Low -- °F
Precip. -- in
6:56 AM 4:58 PM
Waning Crescent, 5% visible
Pressure 30.14 in
Visibility 9.0 miles
Clouds Overcast 8500 ft
Windchill 41 °F
Dew Point 43 °F
Humidity 89%
Rainfall 0.29 in
Snow Depth Not available.
UV 0 out of 12
Pollen .40 out of 12
Air Quality Not available.
Flu Activity Not available.
METAR KJAN 200054Z 10008KT 9SM -RA OVC085 08/06 A3015 RMK AO2 SLP207 P0001 T00780061

More Conditions Fewer Conditions

Pressure 30.14 in
Visibility 9.0 miles
Clouds Overcast 8500 ft
Windchill 41 °F
Dew Point 43 °F
Humidity 89%
Rainfall 0.29 in
Snow Depth Not available.
UV 0 out of 12
Pollen .40 out of 12
Air Quality Not available.
Flu Activity Not available.
METAR KJAN 200054Z 10008KT 9SM -RA OVC085 08/06 A3015 RMK AO2 SLP207 P0001 T00780061

More Conditions Fewer Conditions

10-Day Weather Forecast

Almanac

Astronomy

Dec. 19, 2014 Rise Set
Actual Time
Civil Twilight
Nautical Twilight
Astronomical Twilight
Moon
Length of Visible Light
Length of Day
Tomorrow will be .
, % of the Moon is Illuminated

Today's Extremes

State Highs State Lows

Community

WunderPhotos

Upload Photos

1,779,095 photos uploaded!

WunderBlogs® & News

Nearby

Air Quality

  Air Quality AQ Index Pollutant
Not available.

Snow Depth

Station Depth Elevation

Earthquake Activity

City Distance Mag. Time & Date
Minimum magnitude displayed is 2.5.

Coastal Water Temperatures

Place Temperature

Nearby Weather Stations